Time;durP1;ratioP1;P1;durP2;ratioP2;P2;SDS_P1;SDS_P2;PMS_P1;PMS_P2;Temp;Humidity;BMP_temperature;BMP_pressure;BME280_temperature;BME280_humidity;BME280_pressure;Samples;Min_cycle;Max_cycle;Signal;HPM_P1;HPM_P2
2022/07/23 00:01:41;;;;;;;4.78;4.35;;;;;;;16.52;72.88;100396.30;1684112;83;21280;-54
2022/07/23 00:04:49;;;;;;;6.15;4.75;;;;;;;16.51;72.96;100400.13;1684017;84;21201;-54
2022/07/23 00:07:55;;;;;;;6.28;4.60;;;;;;;16.50;73.01;100394.27;1684724;83;21237;-54
2022/07/23 00:11:02;;;;;;;7.22;4.30;;;;;;;16.49;73.10;100397.55;1684365;84;21181;-54
2022/07/23 00:14:10;;;;;;;8.08;4.28;;;;;;;16.51;73.18;100401.52;1684248;85;21305;-54
2022/07/23 00:17:16;;;;;;;5.97;4.17;;;;;;;16.51;73.25;100396.81;1684126;84;21225;-55
2022/07/23 00:20:23;;;;;;;4.62;4.12;;;;;;;16.49;73.31;100391.20;1684752;83;21201;-56
2022/07/23 00:23:30;;;;;;;5.50;4.30;;;;;;;16.50;73.37;100398.41;1683762;85;21225;-56
2022/07/23 00:26:41;;;;;;;5.30;4.20;;;;;;;16.49;73.43;100400.31;1683952;83;21252;-54
2022/07/23 00:29:47;;;;;;;5.60;4.30;;;;;;;16.49;73.48;100400.31;1683631;84;21292;-53
2022/07/23 00:33:01;;;;;;;8.03;4.30;;;;;;;16.50;73.55;100405.32;1683680;83;21602;-53
2022/07/23 00:36:06;;;;;;;7.33;4.15;;;;;;;16.49;73.57;100400.87;1683623;83;21228;-53
2022/07/23 00:39:12;;;;;;;4.47;4.05;;;;;;;16.49;73.62;100405.02;1685796;84;21265;-56
2022/07/23 00:42:18;;;;;;;6.37;4.20;;;;;;;16.50;73.69;100407.56;1684249;83;21233;-56
2022/07/23 00:45:25;;;;;;;4.20;3.80;;;;;;;16.51;73.73;100411.19;1684135;84;21205;-55
2022/07/23 00:48:32;;;;;;;5.45;4.47;;;;;;;16.50;73.76;100412.23;1669857;84;21268;-56
2022/07/23 00:51:39;;;;;;;9.05;4.50;;;;;;;16.49;73.78;100408.61;1656550;86;21256;-55
2022/07/23 00:54:45;;;;;;;10.25;4.08;;;;;;;16.47;73.77;100416.28;1656483;86;21253;-56
2022/07/23 00:57:51;;;;;;;5.17;4.67;;;;;;;16.44;73.74;100410.63;1656403;86;21232;-56
2022/07/23 01:00:57;;;;;;;5.58;4.17;;;;;;;16.39;73.76;100411.77;1656634;86;21208;-55
2022/07/23 01:04:03;;;;;;;5.10;4.50;;;;;;;16.36;73.79;100409.98;1656531;86;21240;-54
2022/07/23 01:07:12;;;;;;;5.78;4.28;;;;;;;16.34;73.80;100424.53;1656553;86;21428;-55
2022/07/23 01:10:31;;;;;;;7.30;4.83;;;;;;;16.30;73.82;100429.63;1656641;86;21233;-55
2022/07/23 01:13:37;;;;;;;5.00;4.50;;;;;;;16.28;73.87;100429.53;1656585;86;21215;-55
2022/07/23 01:16:44;;;;;;;5.97;4.53;;;;;;;16.26;73.95;100428.36;1656484;86;21237;-55
2022/07/23 01:19:54;;;;;;;5.97;4.60;;;;;;;16.24;74.04;100433.23;1656601;86;21256;-56
2022/07/23 01:23:02;;;;;;;6.03;4.12;;;;;;;16.23;74.09;100439.84;1656523;86;21632;-54
2022/07/23 01:26:10;;;;;;;5.12;4.20;;;;;;;16.23;74.12;100438.45;1656541;86;21216;-55
2022/07/23 01:29:16;;;;;;;4.95;4.20;;;;;;;16.21;74.13;100441.09;1656560;86;21224;-55
2022/07/23 01:32:25;;;;;;;8.10;4.90;;;;;;;16.18;74.18;100438.75;1656634;86;21240;-55
2022/07/23 01:35:32;;;;;;;5.28;4.22;;;;;;;16.15;74.22;100442.80;1636325;86;21216;-55
2022/07/23 01:38:41;;;;;;;8.20;5.40;;;;;;;16.15;74.29;100446.94;1656498;86;21245;-55
2022/07/23 01:41:48;;;;;;;5.67;5.00;;;;;;;16.13;74.31;100450.95;1656640;85;21240;-55
2022/07/23 01:44:56;;;;;;;5.53;4.35;;;;;;;16.10;74.36;100456.38;1656624;86;21237;-55
2022/07/23 01:48:04;;;;;;;5.53;4.22;;;;;;;16.09;74.35;100462.12;1656369;86;21224;-56
2022/07/23 01:51:13;;;;;;;7.92;4.65;;;;;;;16.05;74.36;100468.58;1691982;84;21351;-55
2022/07/23 01:54:21;;;;;;;5.40;4.80;;;;;;;16.02;74.36;100464.86;1694386;84;21196;-55
2022/07/23 01:57:30;;;;;;;6.58;4.87;;;;;;;16.00;74.36;100468.88;1694399;83;21252;-54
2022/07/23 02:00:37;;;;;;;5.17;4.67;;;;;;;15.98;74.36;100476.54;1694483;84;21232;-55
2022/07/23 02:03:43;;;;;;;5.67;4.80;;;;;;;15.94;74.35;100471.09;1694155;84;21224;-56
2022/07/23 02:06:51;;;;;;;5.95;4.67;;;;;;;15.90;74.40;100467.89;1694706;83;21232;-55
2022/07/23 02:10:00;;;;;;;6.60;4.95;;;;;;;15.87;74.48;100475.21;1694255;84;21220;-55
2022/07/23 02:13:06;;;;;;;12.45;5.65;;;;;;;15.85;74.55;100475.11;1694378;83;21252;-56
2022/07/23 02:16:14;;;;;;;7.17;5.58;;;;;;;15.83;74.56;100479.46;1694056;83;21279;-55
2022/07/23 02:19:22;;;;;;;6.92;5.37;;;;;;;15.82;74.58;100477.77;1694399;84;21208;-55
2022/07/23 02:22:30;;;;;;;6.15;5.55;;;;;;;15.80;74.64;100479.02;1671710;84;21287;-55
2022/07/23 02:25:36;;;;;;;6.20;5.60;;;;;;;15.80;74.69;100484.53;1693954;84;21279;-55
2022/07/23 02:28:42;;;;;;;7.33;5.62;;;;;;;15.79;74.76;100486.98;1694034;84;21788;-55
2022/07/23 02:31:48;;;;;;;7.12;5.08;;;;;;;15.78;74.78;100491.65;1654601;86;21292;-54
2022/07/23 02:34:54;;;;;;;6.50;5.55;;;;;;;15.78;74.83;100499.93;1655226;86;21770;-55
2022/07/23 02:38:00;;;;;;;7.10;5.55;;;;;;;15.77;74.82;100502.89;1655194;85;21244;-55
2022/07/23 02:41:06;;;;;;;7.05;4.78;;;;;;;15.78;74.85;100509.59;1655303;86;21646;-54
2022/07/23 02:44:12;;;;;;;6.10;5.50;;;;;;;15.77;74.90;100503.76;1655476;86;21221;-55
2022/07/23 02:47:23;;;;;;;8.00;5.78;;;;;;;15.77;74.94;100503.76;1662037;85;21256;-56
2022/07/23 02:50:29;;;;;;;6.92;5.97;;;;;;;15.81;75.03;100501.45;1655031;86;21421;-55
2022/07/23 02:53:38;;;;;;;7.10;6.10;;;;;;;15.82;75.11;100501.23;1656306;86;21273;-55
2022/07/23 02:56:47;;;;;;;6.50;5.80;;;;;;;15.85;75.15;100509.10;1656436;86;21321;-55
2022/07/23 02:59:56;;;;;;;8.65;5.62;;;;;;;15.89;75.22;100500.71;1656148;86;21313;-55
2022/07/23 03:03:04;;;;;;;7.42;5.40;;;;;;;15.92;75.26;100490.63;1655692;86;21250;-56
2022/07/23 03:06:10;;;;;;;6.72;6.00;;;;;;;15.98;75.36;100495.86;1656135;86;21234;-55
2022/07/23 03:09:19;;;;;;;6.35;5.72;;;;;;;16.02;75.46;100504.91;1617774;87;21292;-56
2022/07/23 03:12:26;;;;;;;10.10;5.72;;;;;;;16.09;75.49;100507.13;1601500;89;21810;-55
2022/07/23 03:15:32;;;;;;;7.80;5.75;;;;;;;16.13;75.50;100508.44;1632188;87;21217;-55
2022/07/23 03:18:38;;;;;;;6.25;5.45;;;;;;;16.19;75.56;100502.07;1655895;85;21222;-54
2022/07/23 03:21:44;;;;;;;7.87;6.00;;;;;;;16.25;75.63;100505.37;1656586;86;21218;-54
2022/07/23 03:24:55;;;;;;;7.10;5.17;;;;;;;16.31;75.67;100505.08;1656035;86;21216;-54
2022/07/23 03:28:01;;;;;;;6.65;5.95;;;;;;;16.37;75.74;100509.76;1655976;86;21262;-54
2022/07/23 03:31:09;;;;;;;7.20;5.70;;;;;;;16.44;75.76;100511.50;1600512;89;21257;-54
2022/07/23 03:34:15;;;;;;;7.17;6.37;;;;;;;16.51;75.78;100515.66;1657564;86;21238;-55
2022/07/23 03:37:24;;;;;;;6.12;5.53;;;;;;;16.57;75.80;100522.27;1656826;86;21366;-54
2022/07/23 03:40:32;;;;;;;7.80;5.60;;;;;;;16.63;75.86;100522.80;1656708;86;21253;-54
2022/07/23 03:43:39;;;;;;;8.48;6.25;;;;;;;16.69;75.89;100520.04;1656806;86;21210;-56
2022/07/23 03:46:47;;;;;;;7.75;5.53;;;;;;;16.75;75.96;100529.38;1656246;86;21266;-56
2022/07/23 03:49:57;;;;;;;7.80;6.50;;;;;;;16.80;75.98;100530.98;1656414;86;21619;-55
2022/07/23 03:53:05;;;;;;;7.03;6.35;;;;;;;16.86;76.04;100532.37;1627668;88;21272;-56
2022/07/23 03:56:10;;;;;;;6.72;6.12;;;;;;;16.92;76.08;100524.59;1627801;88;21229;-55
2022/07/23 03:59:16;;;;;;;11.85;6.62;;;;;;;17.00;76.13;100531.85;1628185;88;21212;-55
2022/07/23 04:02:22;;;;;;;7.10;6.40;;;;;;;17.06;76.16;100533.76;1628135;88;21300;-55
2022/07/23 04:05:28;;;;;;;9.20;6.12;;;;;;;17.11;76.18;100529.27;1623846;88;21758;-55
2022/07/23 04:08:48;;;;;;;7.05;6.12;;;;;;;17.19;76.22;100529.56;1617599;87;21248;-54
2022/07/23 04:11:59;;;;;;;8.40;6.92;;;;;;;17.27;76.26;100533.50;1600278;88;21411;-54
2022/07/23 04:15:11;;;;;;;7.85;6.75;;;;;;;17.37;76.33;100533.91;1600665;88;21209;-56
2022/07/23 04:18:23;;;;;;;9.95;6.30;;;;;;;17.45;76.34;100529.56;1592154;89;21407;-55
2022/07/23 04:21:32;;;;;;;7.22;6.50;;;;;;;17.54;76.37;100534.66;1601317;88;21245;-55
2022/07/23 04:24:39;;;;;;;7.47;6.78;;;;;;;17.63;76.36;100531.95;1600277;89;21341;-55
2022/07/23 04:27:48;;;;;;;8.10;6.37;;;;;;;17.69;76.32;100539.94;1600503;89;21276;-54
2022/07/23 04:31:01;;;;;;;6.30;5.70;;;;;;;17.75;76.30;100537.16;1600811;88;21841;-54
2022/07/23 04:34:07;;;;;;;6.65;5.80;;;;;;;17.81;76.31;100547.88;1600055;89;21742;-55
2022/07/23 04:37:18;;;;;;;6.90;5.55;;;;;;;17.87;76.31;100551.14;1600199;89;21292;-54
2022/07/23 04:40:28;;;;;;;8.03;5.40;;;;;;;17.92;76.31;100549.13;1601021;88;21488;-55
2022/07/23 04:43:40;;;;;;;8.20;5.60;;;;;;;17.97;76.33;100548.77;1602775;87;21281;-55
2022/07/23 04:46:47;;;;;;;8.40;5.72;;;;;;;18.01;76.29;100549.19;1600579;88;21249;-55
2022/07/23 04:49:55;;;;;;;6.17;5.58;;;;;;;18.04;76.32;100542.68;1622874;88;21801;-56
2022/07/23 04:53:04;;;;;;;6.53;5.20;;;;;;;18.08;76.33;100541.16;1616129;86;21438;-54
2022/07/23 04:56:19;;;;;;;10.40;5.65;;;;;;;18.15;76.36;100546.66;1635467;86;21218;-54
2022/07/23 04:59:29;;;;;;;8.38;5.53;;;;;;;18.19;76.44;100543.23;1657391;86;21241;-50
2022/07/23 05:02:43;;;;;;;8.47;5.57;;;;;;;18.28;76.50;100537.77;1665512;86;21608;-53
2022/07/23 05:05:51;;;;;;;8.43;5.62;;;;;;;18.38;76.56;100546.98;1665377;86;21307;-55
2022/07/23 05:08:59;;;;;;;6.95;5.62;;;;;;;18.43;76.52;100549.42;1665107;86;21263;-54
2022/07/23 05:12:06;;;;;;;7.37;5.67;;;;;;;18.49;76.49;100538.81;1665353;86;21813;-51
2022/07/23 05:15:18;;;;;;;7.75;5.80;;;;;;;18.56;76.53;100542.41;1665280;86;21264;-53
2022/07/23 05:18:29;;;;;;;7.95;5.42;;;;;;;18.65;76.62;100546.60;1634916;88;21304;-52
2022/07/23 05:21:36;;;;;;;7.87;5.20;;;;;;;18.73;76.62;100544.09;1630265;88;21240;-51
2022/07/23 05:24:43;;;;;;;7.37;4.97;;;;;;;18.82;76.66;100542.20;1655343;86;21753;-52
2022/07/23 05:27:55;;;;;;;7.42;5.53;;;;;;;18.91;76.68;100545.55;1654963;86;21244;-51
2022/07/23 05:31:06;;;;;;;6.10;5.28;;;;;;;19.00;76.75;100539.50;1655541;86;21253;-51
2022/07/23 05:34:17;;;;;;;7.53;5.97;;;;;;;19.11;76.81;100544.31;1631849;86;21360;-53
2022/07/23 05:37:25;;;;;;;7.83;5.55;;;;;;;19.22;76.82;100535.77;1655226;86;21265;-53
2022/07/23 05:40:34;;;;;;;8.85;5.30;;;;;;;19.29;76.76;100537.46;1655359;86;21332;-54
2022/07/23 05:43:48;;;;;;;5.17;4.75;;;;;;;19.37;76.74;100531.28;1655533;86;21290;-52
2022/07/23 05:47:03;;;;;;;7.78;5.17;;;;;;;19.45;76.73;100522.66;1655208;86;21254;-53
2022/07/23 05:50:15;;;;;;;6.22;4.97;;;;;;;19.54;76.79;100522.13;1655771;86;21230;-52
2022/07/23 05:53:23;;;;;;;7.42;4.90;;;;;;;19.65;76.83;100527.44;1653627;86;21258;-51
2022/07/23 05:56:31;;;;;;;6.65;5.30;;;;;;;19.76;76.86;100530.84;1628839;88;21313;-53
2022/07/23 05:59:42;;;;;;;5.30;4.50;;;;;;;19.89;76.85;100521.82;1634824;86;21274;-54
2022/07/23 06:02:48;;;;;;;5.00;4.42;;;;;;;19.99;76.85;100531.85;1653326;86;21756;-52
2022/07/23 06:05:56;;;;;;;4.97;4.17;;;;;;;20.13;76.88;100528.34;1654818;86;21395;-53
2022/07/23 06:09:05;;;;;;;7.92;4.78;;;;;;;20.21;76.79;100528.05;1654897;86;21274;-55
2022/07/23 06:12:14;;;;;;;6.70;3.90;;;;;;;20.29;76.73;100527.20;1655205;86;21254;-53
2022/07/23 06:15:22;;;;;;;11.38;4.47;;;;;;;20.39;76.77;100526.08;1655046;86;21388;-54
2022/07/23 06:18:31;;;;;;;6.42;4.47;;;;;;;20.50;76.76;100539.73;1653562;86;21285;-53
2022/07/23 06:21:41;;;;;;;6.55;4.08;;;;;;;20.58;76.66;100529.67;1653576;85;21593;-54
2022/07/23 06:24:54;;;;;;;6.62;4.22;;;;;;;20.68;76.68;100525.74;1655017;86;21860;-53
2022/07/23 06:28:04;;;;;;;;;;;;;;;20.78;76.63;100517.14;1657096;85;21240;-51
2022/07/23 06:31:09;;;;;;;8.43;4.55;;;;;;;20.89;76.62;100522.41;1654105;87;20541;-51
2022/07/23 06:34:18;;;;;;;5.37;4.58;;;;;;;20.99;76.68;100526.89;1637787;87;21216;-52
2022/07/23 06:37:28;;;;;;;4.85;3.85;;;;;;;21.12;76.81;100522.46;1654937;86;21237;-54
2022/07/23 06:40:34;;;;;;;4.85;4.05;;;;;;;21.24;76.81;100521.09;1654824;86;21221;-53
2022/07/23 06:43:41;;;;;;;6.17;4.40;;;;;;;21.34;76.68;100524.98;1641546;86;21251;-52
2022/07/23 06:46:53;;;;;;;5.15;3.72;;;;;;;21.44;76.68;100527.98;1661402;85;21374;-54
2022/07/23 06:50:00;;;;;;;5.97;3.40;;;;;;;21.53;76.56;100531.27;1652126;85;21368;-53
2022/07/23 06:53:12;;;;;;;4.45;3.20;;;;;;;21.60;76.41;100529.17;1631885;86;21657;-52
2022/07/23 06:56:21;;;;;;;5.42;3.30;;;;;;;21.64;76.28;100529.87;1630037;84;21266;-53
2022/07/23 06:59:31;;;;;;;5.87;3.05;;;;;;;21.70;76.13;100539.17;1628974;88;21262;-53
2022/07/23 07:02:38;;;;;;;11.63;3.60;;;;;;;21.76;76.09;100530.72;1628823;88;21306;-54
2022/07/23 07:05:49;;;;;;;4.87;3.35;;;;;;;21.84;76.06;100540.09;1625268;87;21240;-53
2022/07/23 07:08:57;;;;;;;7.62;3.60;;;;;;;21.90;76.00;100537.72;1636622;86;21295;-53
2022/07/23 07:12:09;;;;;;;5.53;3.12;;;;;;;21.94;75.91;100534.75;1655645;86;21223;-54
2022/07/23 07:15:18;;;;;;;5.22;3.70;;;;;;;22.05;76.02;100536.66;1645987;86;21217;-53
2022/07/23 07:18:31;;;;;;;4.83;3.17;;;;;;;22.16;76.00;100532.99;1628170;88;21277;-53
2022/07/23 07:21:40;;;;;;;;;;;;;;;22.23;75.87;100543.44;1630841;87;21801;-53
2022/07/23 07:24:47;;;;;;;2.95;2.60;;;;;;;22.30;75.73;100535.47;1611265;87;20572;-53
2022/07/23 07:27:55;;;;;;;3.92;3.15;;;;;;;22.35;75.68;100539.22;1628514;88;21296;-55
2022/07/23 07:31:05;;;;;;;4.90;3.00;;;;;;;22.42;75.69;100532.09;1628660;87;21272;-51
2022/07/23 07:34:12;;;;;;;6.47;3.87;;;;;;;22.49;75.62;100529.98;1628678;87;21244;-56
2022/07/23 07:37:25;;;;;;;5.97;3.22;;;;;;;22.54;75.56;100528.19;1628455;87;21292;-54
2022/07/23 07:40:32;;;;;;;4.47;3.20;;;;;;;22.62;75.47;100538.09;1628765;87;21257;-54
2022/07/23 07:43:42;;;;;;;6.15;2.92;;;;;;;22.70;75.39;100540.48;1628616;88;21532;-52
2022/07/23 07:46:52;;;;;;;4.67;3.37;;;;;;;22.75;75.26;100534.99;1628198;88;21320;-54
2022/07/23 07:50:00;;;;;;;5.83;3.20;;;;;;;22.81;75.24;100533.98;1628478;88;21224;-53
2022/07/23 07:53:11;;;;;;;4.20;3.20;;;;;;;22.90;75.24;100538.05;1628573;88;21304;-53
2022/07/23 07:56:18;;;;;;;6.05;3.37;;;;;;;22.98;75.07;100543.22;1644213;84;21345;-54
2022/07/23 07:59:26;;;;;;;4.15;3.08;;;;;;;23.01;74.95;100540.77;1658259;86;21229;-52
2022/07/23 08:02:32;;;;;;;6.42;3.80;;;;;;;23.09;74.86;100546.48;1658521;86;21262;-53
2022/07/23 08:05:41;;;;;;;3.58;2.98;;;;;;;23.15;74.76;100542.70;1665670;86;21237;-54
2022/07/23 08:08:53;;;;;;;4.17;3.27;;;;;;;23.21;74.65;100540.28;1662877;84;21249;-54
2022/07/23 08:12:01;;;;;;;10.23;3.35;;;;;;;23.29;74.64;100544.08;1665350;86;21328;-53
2022/07/23 08:15:09;;;;;;;2.75;2.50;;;;;;;23.38;74.59;100539.74;1665724;86;21285;-53
2022/07/23 08:18:19;;;;;;;5.47;2.70;;;;;;;23.49;74.57;100543.84;1667223;86;21243;-53
2022/07/23 08:21:32;;;;;;;6.97;3.27;;;;;;;23.61;74.50;100552.96;1665092;86;21835;-53
2022/07/23 08:24:46;;;;;;;4.15;3.12;;;;;;;23.77;74.41;100542.02;1664014;86;21304;-52
2022/07/23 08:27:57;;;;;;;7.45;3.12;;;;;;;23.91;74.26;100542.78;1664421;86;21255;-51
2022/07/23 08:31:11;;;;;;;3.90;2.70;;;;;;;24.10;74.07;100550.33;1665242;86;21742;-53
2022/07/23 08:34:17;;;;;;;3.37;2.70;;;;;;;24.17;73.76;100558.81;1665352;86;21181;-54
2022/07/23 08:37:24;;;;;;;6.12;2.92;;;;;;;24.09;73.32;100565.41;1637593;86;21304;-52
2022/07/23 08:40:30;;;;;;;3.62;2.80;;;;;;;24.06;73.25;100548.60;1664881;86;21212;-53
2022/07/23 08:43:40;;;;;;;3.22;2.50;;;;;;;24.19;73.33;100548.22;1659107;86;21373;-53
2022/07/23 08:46:51;;;;;;;4.10;2.85;;;;;;;24.30;73.15;100557.58;1664290;86;21260;-53
2022/07/23 08:50:01;;;;;;;6.53;2.60;;;;;;;24.27;72.99;100558.09;1664120;86;21722;-54
2022/07/23 08:53:14;;;;;;;4.62;2.22;;;;;;;24.30;72.90;100555.63;1657316;86;21267;-54
2022/07/23 08:56:23;;;;;;;4.28;2.42;;;;;;;24.45;72.87;100547.40;1660247;86;21237;-53
2022/07/23 08:59:32;;;;;;;2.55;2.22;;;;;;;24.63;72.80;100562.45;1628896;87;21246;-53
2022/07/23 09:02:41;;;;;;;3.95;2.33;;;;;;;24.73;72.65;100545.80;1629261;87;21266;-52
2022/07/23 09:05:53;;;;;;;5.12;2.20;;;;;;;24.83;72.47;100554.29;1636950;86;21205;-54
2022/07/23 09:09:03;;;;;;;2.40;2.20;;;;;;;24.96;72.33;100560.02;1648137;85;21284;-55
2022/07/23 09:12:14;;;;;;;3.52;2.50;;;;;;;25.02;72.06;100551.97;1625357;87;21261;-54
2022/07/23 09:15:26;;;;;;;5.05;2.42;;;;;;;25.11;71.92;100543.91;1617319;87;21296;-52
2022/07/23 09:18:55;;;;;;;2.65;2.45;;;;;;;25.21;71.68;100545.41;1626564;88;21237;-53
2022/07/23 09:22:30;;;;;;;2.45;2.25;;;;;;;25.29;71.59;100547.14;1610760;87;21825;-54
2022/07/23 09:25:39;;;;;;;4.37;2.30;;;;;;;25.26;71.34;100550.48;1620973;88;21757;-52
2022/07/23 09:29:16;;;;;;;3.05;2.20;;;;;;;25.23;71.19;100550.20;1596303;89;21750;-53
2022/07/23 09:32:24;;;;;;;3.50;2.20;;;;;;;25.15;70.98;100568.32;1651828;86;21573;-52
2022/07/23 09:35:32;;;;;;;5.65;2.20;;;;;;;25.01;70.80;100548.31;1646091;86;21228;-53
2022/07/23 09:38:45;;;;;;;4.45;1.90;;;;;;;25.16;71.02;100545.36;1626843;87;21249;-54
2022/07/23 09:42:04;;;;;;;4.37;2.12;;;;;;;25.45;71.06;100541.15;1613189;86;21280;-53
2022/07/23 09:45:15;;;;;;;3.87;2.22;;;;;;;25.68;70.91;100535.13;1654904;86;21320;-54
2022/07/23 09:48:27;;;;;;;2.55;2.08;;;;;;;25.70;70.51;100544.98;1621926;86;21276;-52
2022/07/23 09:51:39;;;;;;;4.05;2.10;;;;;;;25.61;70.19;100538.17;1654916;86;21415;-54
2022/07/23 09:54:49;;;;;;;3.08;2.40;;;;;;;25.63;70.14;100541.55;1654493;86;21236;-52
2022/07/23 09:57:58;;;;;;;5.00;2.67;;;;;;;25.51;69.87;100535.86;1654273;85;21236;-55
2022/07/23 10:01:06;;;;;;;3.27;2.22;;;;;;;25.46;69.88;100538.63;1655196;86;21249;-54
2022/07/23 10:04:19;;;;;;;3.42;2.22;;;;;;;25.57;70.00;100538.98;1628869;88;21276;-53
2022/07/23 10:07:35;;;;;;;5.08;2.10;;;;;;;25.74;70.04;100528.42;1628571;88;21312;-52
2022/07/23 10:10:50;;;;;;;3.75;2.17;;;;;;;26.00;70.04;100521.88;1626160;88;21221;-53
2022/07/23 10:14:07;;;;;;;4.72;2.45;;;;;;;25.99;69.49;100526.61;1603361;88;21784;-52
2022/07/23 10:17:10;;;;;;;3.92;1.80;;;;;;;26.01;69.40;100521.61;1628955;88;21288;-50
2022/07/23 10:20:00;;;;;;;3.08;1.85;;;;;;;26.09;69.20;100527.25;1611055;88;21285;-54
2022/07/23 10:23:36;;;;;;;3.70;2.02;;;;;;;26.11;68.96;100522.21;1628779;88;21263;-52
2022/07/23 10:27:05;;;;;;;2.62;1.87;;;;;;;26.14;68.67;100528.67;1657954;84;21329;-53
2022/07/23 10:30:28;;;;;;;3.83;1.77;;;;;;;26.15;68.57;100507.90;1646401;84;21289;-53
2022/07/23 10:34:00;;;;;;;4.75;2.00;;;;;;;26.30;68.52;100517.80;1653373;86;21293;-53
2022/07/23 10:37:26;;;;;;;2.50;1.90;;;;;;;26.24;68.23;100517.50;1654175;86;21288;-52
2022/07/23 10:40:37;;;;;;;2.27;1.77;;;;;;;26.11;68.11;100517.45;1654141;86;21816;-53
2022/07/23 10:43:44;;;;;;;4.70;2.10;;;;;;;26.16;68.11;100514.64;1638658;86;21260;-54
2022/07/23 10:47:16;;;;;;;5.00;2.08;;;;;;;26.24;68.07;100521.13;1655193;86;21305;-52
2022/07/23 10:50:39;;;;;;;2.00;1.77;;;;;;;26.34;68.04;100526.79;1654559;86;21373;-53
2022/07/23 10:54:02;;;;;;;3.45;2.00;;;;;;;26.54;68.04;100513.94;1627350;88;21258;-53
2022/07/23 10:57:18;;;;;;;2.10;1.90;;;;;;;26.74;67.84;100519.06;1627760;88;21744;-52
2022/07/23 11:00:31;;;;;;;3.08;2.10;;;;;;;26.81;67.48;100504.20;1665081;85;21233;-53
2022/07/23 11:03:43;;;;;;;5.08;2.10;;;;;;;26.93;67.30;100497.73;1667528;84;21245;-55
2022/07/23 11:07:01;;;;;;;2.72;1.95;;;;;;;27.09;67.22;100507.86;1666467;86;21229;-54
2022/07/23 11:10:10;;;;;;;4.78;2.42;;;;;;;27.08;66.83;100510.41;1667688;84;21242;-54
2022/07/23 11:13:42;;;;;;;4.87;1.98;;;;;;;27.15;66.64;100491.81;1627232;88;21344;-54
2022/07/23 11:16:54;;;;;;;;;;;;;;;27.33;66.65;100491.28;1615449;89;21237;-52
2022/07/23 11:20:22;;;;;;;3.85;1.87;;;;;;;27.57;66.61;100510.11;1666881;86;20267;-53
2022/07/23 11:23:28;;;;;;;2.87;1.90;;;;;;;27.49;65.86;100492.95;1651768;85;21246;-54
2022/07/23 11:26:56;;;;;;;4.33;1.90;;;;;;;27.29;65.64;100492.41;1666454;86;21230;-52
2022/07/23 11:30:04;;;;;;;5.60;2.00;;;;;;;27.19;65.50;100491.00;1628280;86;21703;-53
2022/07/23 11:33:22;;;;;;;7.35;2.00;;;;;;;27.24;65.66;100485.34;1612419;89;21242;-54
2022/07/23 11:36:28;;;;;;;3.00;1.82;;;;;;;27.45;65.57;100474.39;1669023;85;21217;-54
2022/07/23 11:39:39;;;;;;;6.40;1.60;;;;;;;27.60;65.32;100468.75;1671386;85;21243;-54
2022/07/23 11:43:00;;;;;;;3.02;1.70;;;;;;;27.64;65.00;100475.47;1683314;84;21278;-55
2022/07/23 11:46:07;;;;;;;2.72;1.80;;;;;;;27.63;64.74;100496.30;1683069;85;21214;-53
2022/07/23 11:49:17;;;;;;;4.45;1.65;;;;;;;27.68;64.64;100478.56;1660935;85;21238;-52
2022/07/23 11:52:30;;;;;;;2.83;1.70;;;;;;;27.81;64.45;100477.37;1683895;84;21262;-52
2022/07/23 11:55:41;;;;;;;2.50;1.50;;;;;;;27.96;64.26;100479.89;1666769;85;21270;-55
2022/07/23 11:58:51;;;;;;;3.40;1.70;;;;;;;27.99;63.85;100473.71;1628108;87;21224;-54
2022/07/23 12:02:10;;;;;;;2.05;1.45;;;;;;;27.82;63.34;100474.02;1601161;89;21276;-53
2022/07/23 12:05:28;;;;;;;4.62;1.85;;;;;;;27.58;63.01;100472.95;1601598;89;21228;-52
2022/07/23 12:08:36;;;;;;;3.37;1.70;;;;;;;27.33;62.83;100477.23;1601375;89;21316;-53
2022/07/23 12:11:45;;;;;;;5.25;1.87;;;;;;;27.14;62.77;100483.97;1601099;89;21284;-52
2022/07/23 12:15:06;;;;;;;6.78;1.80;;;;;;;27.05;62.84;100478.61;1601854;89;21232;-53
2022/07/23 12:18:22;;;;;;;1.85;1.42;;;;;;;27.06;62.93;100477.50;1627593;88;21263;-52
2022/07/23 12:21:27;;;;;;;4.50;1.70;;;;;;;27.07;62.87;100480.59;1623987;88;21241;-54
2022/07/23 12:24:36;;;;;;;6.65;1.95;;;;;;;27.07;62.72;100486.76;1627651;88;21240;-53
2022/07/23 12:27:44;;;;;;;1.75;1.30;;;;;;;27.11;62.67;100477.51;1627544;88;21825;-54
2022/07/23 12:30:56;;;;;;;3.15;1.52;;;;;;;27.26;62.63;100485.06;1627745;88;21224;-53
2022/07/23 12:34:09;;;;;;;5.05;1.60;;;;;;;27.32;62.36;100467.12;1627991;88;21217;-54
2022/07/23 12:37:42;;;;;;;3.83;1.70;;;;;;;27.19;62.01;100475.54;1612568;87;21257;-53
2022/07/23 12:40:57;;;;;;;2.35;1.60;;;;;;;27.03;61.88;100471.05;1627699;88;21269;-53
2022/07/23 12:44:05;;;;;;;3.10;2.17;;;;;;;26.89;61.78;100475.55;1628123;88;21301;-52
2022/07/23 12:47:13;;;;;;;3.10;1.67;;;;;;;26.86;61.83;100476.08;1627071;86;21257;-51
2022/07/23 12:50:40;;;;;;;1.65;1.30;;;;;;;26.86;61.69;100478.88;1627059;86;21229;-53
2022/07/23 12:53:48;;;;;;;2.77;1.32;;;;;;;26.87;61.65;100478.34;1626916;88;21225;-54
2022/07/23 12:57:02;;;;;;;4.45;1.50;;;;;;;26.90;61.46;100465.98;1627598;88;21289;-53
2022/07/23 13:00:17;;;;;;;2.22;1.45;;;;;;;26.90;61.28;100467.38;1627604;88;21237;-55
2022/07/23 13:03:47;;;;;;;3.30;1.40;;;;;;;26.94;61.16;100464.86;1655022;86;21347;-55
2022/07/23 13:07:07;;;;;;;4.05;1.50;;;;;;;27.03;61.09;100469.64;1651154;86;21860;-54
2022/07/23 13:10:16;;;;;;;4.70;1.57;;;;;;;27.20;61.01;100465.97;1627485;86;21254;-55
2022/07/23 13:13:30;;;;;;;4.35;1.40;;;;;;;27.30;60.87;100457.56;1628876;88;21383;-54
2022/07/23 13:16:39;;;;;;;1.60;1.40;;;;;;;27.37;60.73;100453.87;1613181;87;21256;-54
2022/07/23 13:19:51;;;;;;;3.30;2.02;;;;;;;27.47;60.41;100462.86;1629143;88;21261;-55
2022/07/23 13:22:59;;;;;;;4.40;1.72;;;;;;;27.45;60.17;100456.66;1628926;88;21241;-54
2022/07/23 13:26:08;;;;;;;4.72;1.40;;;;;;;27.38;60.06;100451.36;1648857;86;21232;-54
2022/07/23 13:29:16;;;;;;;2.08;1.50;;;;;;;27.36;59.98;100449.39;1654826;86;21221;-54
2022/07/23 13:32:24;;;;;;;3.17;1.72;;;;;;;27.35;59.82;100462.33;1655343;86;21423;-54
2022/07/23 13:35:33;;;;;;;3.98;1.27;;;;;;;27.29;59.71;100457.27;1653348;86;21351;-53
2022/07/23 13:38:42;;;;;;;2.05;1.20;;;;;;;27.36;59.62;100456.97;1633584;86;21292;-56
2022/07/23 13:41:49;;;;;;;3.70;1.30;;;;;;;27.37;59.41;100465.13;1629824;86;21252;-52
2022/07/23 13:44:51;;;;;;;4.58;1.40;;;;;;;27.35;59.19;100458.11;1618202;86;21438;-51
2022/07/23 13:48:00;;;;;;;5.22;1.47;;;;;;;27.35;59.13;100451.91;1628485;86;21280;-54
2022/07/23 13:51:17;;;;;;;2.42;1.27;;;;;;;27.43;59.01;100451.91;1602448;88;21268;-53
2022/07/23 13:54:31;;;;;;;2.23;1.40;;;;;;;27.42;58.80;100467.08;1629062;86;21304;-52
2022/07/23 13:57:51;;;;;;;3.77;1.20;;;;;;;27.39;58.65;100461.47;1628345;88;22480;-53
2022/07/23 14:01:02;;;;;;;2.30;1.32;;;;;;;27.39;58.54;100461.47;1629005;86;21264;-54
2022/07/23 14:04:08;;;;;;;2.42;1.22;;;;;;;27.43;58.45;100453.31;1654842;86;21403;-54
2022/07/23 14:07:16;;;;;;;3.00;1.27;;;;;;;27.46;58.32;100452.75;1655047;86;21264;-54
2022/07/23 14:10:25;;;;;;;3.52;1.60;;;;;;;27.46;58.19;100455.55;1639679;84;21285;-53
2022/07/23 14:13:35;;;;;;;4.45;1.40;;;;;;;27.46;58.04;100457.78;1687170;84;21232;-56
2022/07/23 14:16:44;;;;;;;2.72;1.52;;;;;;;27.48;57.94;100463.97;1686500;85;21252;-54
2022/07/23 14:19:50;;;;;;;1.55;1.30;;;;;;;27.45;57.75;100462.28;1686569;84;21213;-55
2022/07/23 14:23:02;;;;;;;1.87;1.55;;;;;;;27.38;57.67;100468.23;1686730;84;21268;-53
2022/07/23 14:26:11;;;;;;;3.52;1.20;;;;;;;27.34;57.56;100464.84;1685690;85;21224;-53
2022/07/23 14:29:18;;;;;;;2.52;1.30;;;;;;;27.31;57.52;100463.45;1677993;85;21302;-52
2022/07/23 14:32:27;;;;;;;2.70;1.40;;;;;;;27.32;57.45;100460.91;1682132;85;21250;-54
2022/07/23 14:35:33;;;;;;;2.80;1.60;;;;;;;27.37;57.39;100466.53;1682774;85;21238;-53
2022/07/23 14:38:40;;;;;;;2.17;1.40;;;;;;;27.38;57.20;100459.80;1662045;85;21276;-54
2022/07/23 14:41:50;;;;;;;5.08;1.52;;;;;;;27.41;57.06;100461.19;1658098;85;21282;-55
2022/07/23 14:44:58;;;;;;;2.95;1.57;;;;;;;27.41;56.89;100459.23;1615351;88;21232;-54
2022/07/23 14:48:08;;;;;;;3.22;2.08;;;;;;;27.39;56.78;100458.66;1635813;86;21260;-54